Time;durP1;ratioP1;P1;durP2;ratioP2;P2;SDS_P1;SDS_P2;PMS_P1;PMS_P2;Temp;Humidity;BMP_temperature;BMP_pressure;BME280_temperature;BME280_humidity;BME280_pressure;Samples;Min_cycle;Max_cycle;Signal;HPM_P1;HPM_P2
2023/09/20 00:00:36;;;;;;;3.90;1.20;;;;;;;;;;5054629;28;20479;-74
2023/09/20 00:03:06;;;;;;;5.40;1.37;;;;;;;;;;5054781;28;20455;-74
2023/09/20 00:05:33;;;;;;;2.20;1.20;;;;;;;;;;5054536;28;20958;-74
2023/09/20 00:08:04;;;;;;;3.33;1.40;;;;;;;;;;5054213;28;20430;-75
2023/09/20 00:10:31;;;;;;;3.33;1.20;;;;;;;;;;5054320;28;20435;-74
2023/09/20 00:12:59;;;;;;;2.67;1.17;;;;;;;;;;5054523;28;20855;-74
2023/09/20 00:15:26;;;;;;;6.80;1.93;;;;;;;;;;5054228;28;20472;-74
2023/09/20 00:17:54;;;;;;;2.43;1.30;;;;;;;;;;5054126;28;20969;-74
2023/09/20 00:20:23;;;;;;;4.00;1.80;;;;;;;;;;5054444;28;20440;-74
2023/09/20 00:22:50;;;;;;;4.20;2.27;;;;;;;;;;5054441;28;20477;-74
2023/09/20 00:25:17;;;;;;;2.57;1.70;;;;;;;;;;5054221;28;20524;-74
2023/09/20 00:27:46;;;;;;;3.93;1.70;;;;;;;;;;5042647;28;20994;-74
2023/09/20 00:30:14;;;;;;;2.90;1.17;;;;;;;;;;5034974;28;20496;-74
2023/09/20 00:32:42;;;;;;;3.00;1.27;;;;;;;;;;5034130;28;20559;-74
2023/09/20 00:35:10;;;;;;;2.10;0.93;;;;;;;;;;5033964;28;20455;-74
2023/09/20 00:37:40;;;;;;;4.80;2.10;;;;;;;;;;5034205;28;20455;-74
2023/09/20 00:40:15;;;;;;;2.10;1.00;;;;;;;;;;5034177;28;20441;-74
2023/09/20 00:42:42;;;;;;;2.43;1.40;;;;;;;;;;5033956;28;20535;-74
2023/09/20 00:45:13;;;;;;;3.47;1.60;;;;;;;;;;5033973;28;20445;-75
2023/09/20 00:47:41;;;;;;;5.03;1.83;;;;;;;;;;5033945;28;20426;-74
2023/09/20 00:50:11;;;;;;;5.40;1.63;;;;;;;;;;5033665;28;20452;-75
2023/09/20 00:52:42;;;;;;;2.63;1.43;;;;;;;;;;5051733;28;20459;-74
2023/09/20 00:55:10;;;;;;;5.40;1.43;;;;;;;;;;5053792;28;20455;-74
2023/09/20 00:57:38;;;;;;;2.60;1.40;;;;;;;;;;5053646;28;20467;-75
2023/09/20 01:00:19;;;;;;;3.57;1.40;;;;;;;;;;5053293;28;20493;-74
2023/09/20 01:02:47;;;;;;;4.23;1.83;;;;;;;;;;5053271;28;20829;-75
2023/09/20 01:05:15;;;;;;;2.67;1.73;;;;;;;;;;5054037;28;20443;-74
2023/09/20 01:07:44;;;;;;;2.60;1.50;;;;;;;;;;5053095;28;20436;-74
2023/09/20 01:10:12;;;;;;;2.90;1.73;;;;;;;;;;5052893;28;20850;-74
2023/09/20 01:12:39;;;;;;;3.73;1.70;;;;;;;;;;5052826;28;20468;-74
2023/09/20 01:15:10;;;;;;;4.83;1.20;;;;;;;;;;5053557;28;20491;-74
2023/09/20 01:17:45;;;;;;;2.60;1.67;;;;;;;;;;5053099;28;20443;-75
2023/09/20 01:20:18;;;;;;;2.40;1.30;;;;;;;;;;5053562;28;20482;-74
2023/09/20 01:22:48;;;;;;;3.57;1.27;;;;;;;;;;5052731;28;20445;-74
2023/09/20 01:25:22;;;;;;;6.63;1.70;;;;;;;;;;5053123;28;20489;-74
2023/09/20 01:27:50;;;;;;;2.97;1.50;;;;;;;;;;5053068;28;20459;-74
2023/09/20 01:30:18;;;;;;;2.57;1.20;;;;;;;;;;5052003;28;20471;-74
2023/09/20 01:32:48;;;;;;;2.63;1.50;;;;;;;;;;5053062;28;20866;-73
2023/09/20 01:35:19;;;;;;;2.60;1.40;;;;;;;;;;5054016;28;20956;-74
2023/09/20 01:37:49;;;;;;;2.50;1.40;;;;;;;;;;5059929;28;20519;-74
2023/09/20 01:40:18;;;;;;;3.20;1.40;;;;;;;;;;5059638;28;20921;-74
2023/09/20 01:42:46;;;;;;;2.70;1.50;;;;;;;;;;5059523;28;20807;-74
2023/09/20 01:45:16;;;;;;;2.77;1.43;;;;;;;;;;5060123;28;20922;-74
2023/09/20 01:47:49;;;;;;;3.17;2.13;;;;;;;;;;5059765;28;20463;-75
2023/09/20 01:50:19;;;;;;;2.77;1.63;;;;;;;;;;5059832;28;20427;-74
2023/09/20 01:52:49;;;;;;;2.80;1.40;;;;;;;;;;5059521;28;20515;-74
2023/09/20 01:55:20;;;;;;;4.37;1.80;;;;;;;;;;5059541;28;20482;-74
2023/09/20 01:57:48;;;;;;;3.10;1.40;;;;;;;;;;5059499;28;20425;-74
2023/09/20 02:00:21;;;;;;;3.33;1.93;;;;;;;;;;5059491;28;20969;-74
2023/09/20 02:02:51;;;;;;;3.53;1.40;;;;;;;;;;5059108;28;20846;-74
2023/09/20 02:05:19;;;;;;;5.93;1.30;;;;;;;;;;5059759;28;20533;-74
2023/09/20 02:07:50;;;;;;;3.97;1.67;;;;;;;;;;5059379;28;20444;-74
2023/09/20 02:10:18;;;;;;;6.53;2.10;;;;;;;;;;5048903;28;20487;-74
2023/09/20 02:12:46;;;;;;;7.80;1.77;;;;;;;;;;5039568;28;20530;-74
2023/09/20 02:15:14;;;;;;;3.40;1.37;;;;;;;;;;5039621;28;20949;-75
2023/09/20 02:17:42;;;;;;;2.70;1.70;;;;;;;;;;5039184;28;20960;-75
2023/09/20 02:20:11;;;;;;;3.73;2.07;;;;;;;;;;5039552;28;20442;-74
2023/09/20 02:22:42;;;;;;;2.67;1.37;;;;;;;;;;5054542;28;20509;-74
2023/09/20 02:25:11;;;;;;;2.87;1.87;;;;;;;;;;5059239;28;20431;-74
2023/09/20 02:27:43;;;;;;;3.37;1.60;;;;;;;;;;5059250;28;20447;-74
2023/09/20 02:30:15;;;;;;;3.00;1.50;;;;;;;;;;5059544;28;20459;-74
2023/09/20 02:32:43;;;;;;;2.50;1.40;;;;;;;;;;5041969;28;20479;-74
2023/09/20 02:35:11;;;;;;;2.90;1.97;;;;;;;;;;5039326;28;20436;-74
2023/09/20 02:37:40;;;;;;;3.80;1.70;;;;;;;;;;5039204;28;20440;-74
2023/09/20 02:40:13;;;;;;;2.90;1.60;;;;;;;;;;5039926;28;20448;-74
2023/09/20 02:42:46;;;;;;;3.17;1.70;;;;;;;;;;5038988;28;20515;-74
2023/09/20 02:45:17;;;;;;;7.40;3.90;;;;;;;;;;5039114;28;20884;-74
2023/09/20 02:47:46;;;;;;;6.90;4.23;;;;;;;;;;5037894;28;20431;-74
2023/09/20 02:50:16;;;;;;;10.03;4.43;;;;;;;;;;5036126;28;20446;-75
2023/09/20 02:52:45;;;;;;;8.30;3.23;;;;;;;;;;5035982;28;20431;-74
2023/09/20 02:55:13;;;;;;;3.60;2.17;;;;;;;;;;5036162;28;20527;-74
2023/09/20 02:57:42;;;;;;;3.03;1.97;;;;;;;;;;5036053;28;20463;-74
2023/09/20 03:00:14;;;;;;;3.20;1.90;;;;;;;;;;5035627;28;20468;-74
2023/09/20 03:02:45;;;;;;;3.80;1.53;;;;;;;;;;5050596;28;20440;-74
2023/09/20 03:05:15;;;;;;;2.63;1.53;;;;;;;;;;5056171;28;20424;-74
2023/09/20 03:07:45;;;;;;;2.40;1.10;;;;;;;;;;5055807;28;20804;-74
2023/09/20 03:10:13;;;;;;;5.50;1.57;;;;;;;;;;5054940;28;20462;-74
2023/09/20 03:12:44;;;;;;;3.73;1.30;;;;;;;;;;5055093;28;20971;-74
2023/09/20 03:15:17;;;;;;;4.20;1.30;;;;;;;;;;5055714;28;20457;-75
2023/09/20 03:17:45;;;;;;;2.13;1.00;;;;;;;;;;5055327;28;20423;-74
2023/09/20 03:20:16;;;;;;;2.30;1.27;;;;;;;;;;5055297;28;20439;-74
2023/09/20 03:22:44;;;;;;;3.65;1.40;;;;;;;;;;5054922;28;20431;-74
2023/09/20 03:25:14;;;;;;;3.50;2.07;;;;;;;;;;5055581;28;20193;-74
2023/09/20 03:27:45;;;;;;;3.73;2.10;;;;;;;;;;5055489;28;20445;-74
2023/09/20 03:30:14;;;;;;;8.13;2.10;;;;;;;;;;5055753;28;20462;-74
2023/09/20 03:32:44;;;;;;;3.30;2.23;;;;;;;;;;5054660;28;20454;-74
2023/09/20 03:35:14;;;;;;;3.47;2.10;;;;;;;;;;5055381;28;20489;-74
2023/09/20 03:37:43;;;;;;;5.20;3.03;;;;;;;;;;5055390;28;20458;-74
2023/09/20 03:40:16;;;;;;;5.90;2.90;;;;;;;;;;5054998;28;20438;-75
2023/09/20 03:42:48;;;;;;;2.77;1.47;;;;;;;;;;5036218;28;20843;-74
2023/09/20 03:45:18;;;;;;;3.10;1.80;;;;;;;;;;5034986;28;20428;-74
2023/09/20 03:47:53;;;;;;;3.77;1.63;;;;;;;;;;5034825;28;20444;-75
2023/09/20 03:50:23;;;;;;;2.60;1.30;;;;;;;;;;5034970;28;20419;-74
2023/09/20 03:52:52;;;;;;;1.90;1.00;;;;;;;;;;5035126;28;20433;-74
2023/09/20 03:55:20;;;;;;;2.47;1.10;;;;;;;;;;5035226;28;20534;-74
2023/09/20 03:57:49;;;;;;;2.57;1.40;;;;;;;;;;5035251;28;20535;-74
2023/09/20 04:00:28;;;;;;;2.60;1.40;;;;;;;;;;5034225;28;20985;-74
2023/09/20 04:02:55;;;;;;;2.97;1.70;;;;;;;;;;5034693;28;20437;-74
2023/09/20 04:05:24;;;;;;;3.33;2.07;;;;;;;;;;5035058;28;20445;-74
2023/09/20 04:07:52;;;;;;;3.50;1.90;;;;;;;;;;5035181;28;20827;-74
2023/09/20 04:10:22;;;;;;;3.13;1.70;;;;;;;;;;5034959;28;20810;-74
2023/09/20 04:12:50;;;;;;;2.93;1.20;;;;;;;;;;5052890;28;20466;-74
2023/09/20 04:15:19;;;;;;;4.90;1.10;;;;;;;;;;5054428;28;20439;-74
2023/09/20 04:17:51;;;;;;;2.42;1.30;;;;;;;;;;5054332;28;20451;-75
2023/09/20 04:20:21;;;;;;;3.27;1.40;;;;;;;;;;5054896;28;20641;-74
2023/09/20 04:22:49;;;;;;;2.55;1.30;;;;;;;;;;5054140;28;20443;-74
2023/09/20 04:25:17;;;;;;;2.80;1.80;;;;;;;;;;5054458;28;20207;-74
2023/09/20 04:27:46;;;;;;;3.67;1.67;;;;;;;;;;5054552;28;20478;-74
2023/09/20 04:30:21;;;;;;;2.87;1.80;;;;;;;;;;5053899;28;20447;-74
2023/09/20 04:32:51;;;;;;;2.97;1.50;;;;;;;;;;5053628;28;20521;-74
2023/09/20 04:35:19;;;;;;;7.95;1.65;;;;;;;;;;5054603;28;20227;-74
2023/09/20 04:37:47;;;;;;;3.73;2.20;;;;;;;;;;5054411;28;20251;-74
2023/09/20 04:40:14;;;;;;;4.00;2.00;;;;;;;;;;5052596;28;20508;-74
2023/09/20 04:42:42;;;;;;;3.70;2.37;;;;;;;;;;5040369;28;20198;-74
2023/09/20 04:45:12;;;;;;;3.10;2.10;;;;;;;;;;5033298;28;20524;-75
2023/09/20 04:47:42;;;;;;;3.87;2.17;;;;;;;;;;5033732;28;20434;-74
2023/09/20 04:50:13;;;;;;;6.43;2.30;;;;;;;;;;5033964;28;20835;-74
2023/09/20 04:52:41;;;;;;;2.80;1.63;;;;;;;;;;5034299;28;20471;-75
2023/09/20 04:55:11;;;;;;;2.40;1.40;;;;;;;;;;5034007;28;20443;-74
2023/09/20 04:57:39;;;;;;;4.60;2.50;;;;;;;;;;5034089;28;20437;-74
2023/09/20 05:00:09;;;;;;;3.67;2.17;;;;;;;;;;5033792;28;20649;-74
2023/09/20 05:02:37;;;;;;;4.50;2.50;;;;;;;;;;5035664;28;20246;-74
2023/09/20 05:05:07;;;;;;;5.13;1.90;;;;;;;;;;5039933;28;20525;-74
2023/09/20 05:07:34;;;;;;;4.05;1.75;;;;;;;;;;5033180;28;20428;-74
2023/09/20 05:10:07;;;;;;;2.77;1.77;;;;;;;;;;5032847;28;20276;-74
2023/09/20 05:12:36;;;;;;;4.03;1.87;;;;;;;;;;5033788;28;20448;-74
2023/09/20 05:15:05;;;;;;;3.50;1.70;;;;;;;;;;5033515;28;20444;-74
2023/09/20 05:17:38;;;;;;;2.93;1.83;;;;;;;;;;5033171;28;20445;-74
2023/09/20 05:20:08;;;;;;;3.13;2.30;;;;;;;;;;5033612;28;20432;-74
2023/09/20 05:22:38;;;;;;;3.23;1.87;;;;;;;;;;5033202;28;20444;-74
2023/09/20 05:25:15;;;;;;;3.10;2.17;;;;;;;;;;5032993;28;20477;-74
2023/09/20 05:27:43;;;;;;;2.40;1.57;;;;;;;;;;5029045;28;20433;-74
2023/09/20 05:30:11;;;;;;;3.63;1.93;;;;;;;;;;5032562;28;20499;-74
2023/09/20 05:32:39;;;;;;;2.78;1.70;;;;;;;;;;5033004;28;20519;-74
2023/09/20 05:35:11;;;;;;;3.07;1.80;;;;;;;;;;5032686;28;20198;-74
2023/09/20 05:37:39;;;;;;;5.67;2.77;;;;;;;;;;5032993;28;20428;-76
2023/09/20 05:40:13;;;;;;;8.50;3.67;;;;;;;;;;5033071;28;20444;-76
2023/09/20 05:42:41;;;;;;;5.10;3.20;;;;;;;;;;5033060;28;20428;-74
2023/09/20 05:45:12;;;;;;;8.75;2.40;;;;;;;;;;5032818;28;20479;-74
2023/09/20 05:47:41;;;;;;;5.50;2.20;;;;;;;;;;5033299;28;20192;-74
2023/09/20 05:50:13;;;;;;;4.27;2.30;;;;;;;;;;5033244;28;20494;-75
2023/09/20 05:52:42;;;;;;;3.27;1.70;;;;;;;;;;5033071;28;20519;-74
2023/09/20 05:55:14;;;;;;;3.00;1.70;;;;;;;;;;5029387;28;20467;-74
2023/09/20 05:57:42;;;;;;;4.50;1.70;;;;;;;;;;5033125;28;20432;-74
2023/09/20 06:00:16;;;;;;;3.43;1.87;;;;;;;;;;5032489;28;20464;-76
2023/09/20 06:02:47;;;;;;;3.57;1.70;;;;;;;;;;5032936;28;20427;-76
2023/09/20 06:05:18;;;;;;;4.40;1.80;;;;;;;;;;5041995;28;20468;-76
2023/09/20 06:07:46;;;;;;;3.17;1.37;;;;;;;;;;5023481;28;20936;-76
2023/09/20 06:10:16;;;;;;;3.57;1.80;;;;;;;;;;5043212;28;20437;-76
2023/09/20 06:12:44;;;;;;;13.90;1.97;;;;;;;;;;5040613;28;20432;-76
2023/09/20 06:15:13;;;;;;;2.40;1.40;;;;;;;;;;5032039;28;20446;-76
2023/09/20 06:17:42;;;;;;;4.17;1.70;;;;;;;;;;5035494;28;21050;-76
2023/09/20 06:20:11;;;;;;;2.73;1.80;;;;;;;;;;5042238;28;20448;-77
2023/09/20 06:22:40;;;;;;;4.40;2.23;;;;;;;;;;5054269;28;20475;-76
2023/09/20 06:25:10;;;;;;;3.23;1.93;;;;;;;;;;5038008;28;20474;-76
2023/09/20 06:27:39;;;;;;;5.87;1.80;;;;;;;;;;5036119;28;20452;-76
2023/09/20 06:30:13;;;;;;;2.90;1.80;;;;;;;;;;5036045;28;20467;-74
2023/09/20 06:32:41;;;;;;;6.87;2.10;;;;;;;;;;5035859;28;20515;-76
2023/09/20 06:35:09;;;;;;;9.03;2.00;;;;;;;;;;5035980;28;20520;-76
2023/09/20 06:37:38;;;;;;;5.90;1.63;;;;;;;;;;5036008;28;20445;-76
2023/09/20 06:40:20;;;;;;;3.60;1.40;;;;;;;;;;5032393;28;20470;-76
2023/09/20 06:42:48;;;;;;;5.03;2.23;;;;;;;;;;5035591;28;20536;-76
2023/09/20 06:45:15;;;;;;;3.40;1.83;;;;;;;;;;5035762;28;20501;-76
2023/09/20 06:47:43;;;;;;;3.90;1.43;;;;;;;;;;5035645;28;20430;-76
2023/09/20 06:50:12;;;;;;;3.10;1.93;;;;;;;;;;5035440;28;20462;-76
2023/09/20 06:52:42;;;;;;;3.23;1.30;;;;;;;;;;5035323;28;20816;-76
2023/09/20 06:55:16;;;;;;;3.47;1.40;;;;;;;;;;5035229;28;20916;-76
2023/09/20 06:57:43;;;;;;;2.80;1.40;;;;;;;;;;5035696;28;20524;-76
2023/09/20 07:00:25;;;;;;;4.40;1.33;;;;;;;;;;5035265;28;20470;-76
2023/09/20 07:02:52;;;;;;;5.83;1.03;;;;;;;;;;5035238;28;20431;-75
2023/09/20 07:05:21;;;;;;;3.07;1.40;;;;;;;;;;5035376;28;20474;-74
2023/09/20 07:07:48;;;;;;;2.20;0.90;;;;;;;;;;5035157;28;20781;-74
2023/09/20 07:10:17;;;;;;;10.23;1.23;;;;;;;;;;5035293;28;20499;-74
2023/09/20 07:12:44;;;;;;;2.20;0.90;;;;;;;;;;5035511;28;20442;-75
2023/09/20 07:15:15;;;;;;;3.03;0.80;;;;;;;;;;5035307;28;20468;-74
2023/09/20 07:17:43;;;;;;;3.10;0.97;;;;;;;;;;5035386;28;20434;-74
2023/09/20 07:20:15;;;;;;;2.67;1.10;;;;;;;;;;5035020;28;20439;-75
2023/09/20 07:22:43;;;;;;;3.37;0.87;;;;;;;;;;5034895;28;20480;-74
2023/09/20 07:25:17;;;;;;;2.93;1.00;;;;;;;;;;5034571;28;20935;-75
2023/09/20 07:27:45;;;;;;;2.70;1.10;;;;;;;;;;5035103;28;20779;-75
2023/09/20 07:30:17;;;;;;;3.37;1.10;;;;;;;;;;5035060;28;20434;-75
2023/09/20 07:32:44;;;;;;;2.50;1.00;;;;;;;;;;5034944;28;20427;-74
2023/09/20 07:35:26;;;;;;;3.47;1.07;;;;;;;;;;5034056;28;20505;-74
2023/09/20 07:37:56;;;;;;;6.40;1.10;;;;;;;;;;5035457;28;20419;-75
2023/09/20 07:40:23;;;;;;;2.57;1.30;;;;;;;;;;5034344;28;20437;-75
2023/09/20 07:42:52;;;;;;;2.97;1.57;;;;;;;;;;5034849;28;20528;-75
2023/09/20 07:45:22;;;;;;;3.03;1.30;;;;;;;;;;5034573;28;20501;-75
2023/09/20 07:47:51;;;;;;;2.70;1.57;;;;;;;;;;5034364;28;20801;-75
2023/09/20 07:50:19;;;;;;;2.50;1.00;;;;;;;;;;5034622;28;20488;-75
2023/09/20 07:52:47;;;;;;;2.33;0.90;;;;;;;;;;5034277;28;20525;-75
2023/09/20 07:55:14;;;;;;;2.17;0.93;;;;;;;;;;5034150;28;20484;-75
2023/09/20 07:57:42;;;;;;;4.67;1.30;;;;;;;;;;5034498;28;20533;-75
2023/09/20 08:00:15;;;;;;;2.20;0.90;;;;;;;;;;5034015;28;20521;-75
2023/09/20 08:02:46;;;;;;;2.83;0.97;;;;;;;;;;5034423;28;20762;-75
2023/09/20 08:05:14;;;;;;;3.50;1.40;;;;;;;;;;5034116;28;20513;-75
2023/09/20 08:07:41;;;;;;;2.30;1.07;;;;;;;;;;5034060;28;20638;-76
2023/09/20 08:10:09;;;;;;;2.40;1.13;;;;;;;;;;5033989;28;20446;-75
2023/09/20 08:12:37;;;;;;;1.90;0.70;;;;;;;;;;5034490;28;20556;-75
2023/09/20 08:15:04;;;;;;;5.03;1.40;;;;;;;;;;5034064;28;20481;-75
2023/09/20 08:20:21;;;;;;;2.13;1.00;;;;;;;;;;5033828;28;20413;-75
2023/09/20 09:01:37;;;;;;;2.83;1.00;;;;;;;;;;5032882;28;20476;-75
2023/09/20 09:04:06;;;;;;;2.30;0.80;;;;;;;;;;5033065;28;20474;-75
2023/09/20 09:06:35;;;;;;;4.67;1.00;;;;;;;;;;5033185;28;20440;-75
2023/09/20 09:09:03;;;;;;;2.10;0.87;;;;;;;;;;5033194;28;20822;-75
2023/09/20 09:11:30;;;;;;;3.13;1.00;;;;;;;;;;5033750;28;20433;-76
2023/09/20 09:13:58;;;;;;;2.10;1.23;;;;;;;;;;5033118;28;20465;-75
2023/09/20 09:16:27;;;;;;;2.70;1.03;;;;;;;;;;5032622;28;21033;-75
2023/09/20 09:18:55;;;;;;;2.60;1.20;;;;;;;;;;5033188;28;20457;-76
2023/09/20 09:21:23;;;;;;;3.60;1.23;;;;;;;;;;5032995;28;20427;-76
2023/09/20 09:23:56;;;;;;;2.77;1.10;;;;;;;;;;5032981;28;20483;-76
2023/09/20 09:26:25;;;;;;;2.13;1.10;;;;;;;;;;5033050;28;20430;-76
2023/09/20 09:28:53;;;;;;;2.53;1.43;;;;;;;;;;5033077;28;20434;-75
2023/09/20 09:31:20;;;;;;;2.60;1.17;;;;;;;;;;5032742;28;20445;-76
2023/09/20 09:33:47;;;;;;;6.17;1.13;;;;;;;;;;5032942;28;20434;-76
2023/09/20 09:36:15;;;;;;;2.30;0.87;;;;;;;;;;5033202;28;20527;-76
2023/09/20 09:38:44;;;;;;;1.90;0.90;;;;;;;;;;5032876;28;20487;-76
2023/09/20 09:41:13;;;;;;;2.50;1.10;;;;;;;;;;5032342;28;20487;-76
2023/09/20 09:43:43;;;;;;;4.53;1.00;;;;;;;;;;5032837;28;20504;-75
2023/09/20 09:46:11;;;;;;;2.40;1.00;;;;;;;;;;5032424;28;20568;-76
2023/09/20 09:48:38;;;;;;;2.47;1.00;;;;;;;;;;5032753;28;20426;-75
2023/09/20 09:51:06;;;;;;;1.90;1.07;;;;;;;;;;5032734;28;20433;-75
2023/09/20 09:53:35;;;;;;;4.93;1.20;;;;;;;;;;5032711;28;20430;-76
2023/09/20 09:56:08;;;;;;;1.90;1.07;;;;;;;;;;5032655;28;20524;-76
2023/09/20 09:58:37;;;;;;;1.83;1.00;;;;;;;;;;5036055;28;20471;-76
2023/09/20 10:01:07;;;;;;;2.60;1.10;;;;;;;;;;5036311;28;20863;-76
2023/09/20 10:03:36;;;;;;;2.47;1.00;;;;;;;;;;5036594;28;20425;-76
2023/09/20 10:06:07;;;;;;;2.17;1.17;;;;;;;;;;5036168;28;20498;-76
2023/09/20 10:08:38;;;;;;;1.90;1.00;;;;;;;;;;5036104;28;20524;-76
2023/09/20 10:11:05;;;;;;;2.10;1.10;;;;;;;;;;5035244;28;20409;-76
2023/09/20 10:13:33;;;;;;;4.67;1.00;;;;;;;;;;5036211;28;20440;-75
2023/09/20 10:16:02;;;;;;;2.00;0.90;;;;;;;;;;5036384;28;20440;-76
2023/09/20 10:18:32;;;;;;;2.50;1.10;;;;;;;;;;5036337;28;20503;-76
2023/09/20 10:21:05;;;;;;;3.00;1.10;;;;;;;;;;5035865;28;20421;-76
2023/09/20 10:23:37;;;;;;;2.23;1.10;;;;;;;;;;5036704;28;20425;-76
2023/09/20 10:26:12;;;;;;;2.37;1.37;;;;;;;;;;5035925;28;20463;-76
2023/09/20 10:28:41;;;;;;;2.63;1.30;;;;;;;;;;5036296;28;20414;-76
2023/09/20 10:31:15;;;;;;;3.37;1.20;;;;;;;;;;5035917;28;20435;-76
2023/09/20 10:33:45;;;;;;;2.13;1.17;;;;;;;;;;5035960;28;20867;-76
2023/09/20 10:36:13;;;;;;;1.80;0.90;;;;;;;;;;5035880;28;20448;-76
2023/09/20 10:38:44;;;;;;;3.40;1.37;;;;;;;;;;5036034;28;20437;-76
2023/09/20 10:41:12;;;;;;;2.20;1.20;;;;;;;;;;5035741;28;20429;-76
2023/09/20 10:43:49;;;;;;;3.13;1.10;;;;;;;;;;5035986;28;20830;-76
2023/09/20 10:46:18;;;;;;;2.90;1.13;;;;;;;;;;5035527;28;20515;-76
2023/09/20 10:48:50;;;;;;;3.73;1.20;;;;;;;;;;5035804;28;20441;-76
2023/09/20 10:51:32;;;;;;;2.50;1.20;;;;;;;;;;5035814;28;20507;-76
2023/09/20 10:54:02;;;;;;;3.47;1.33;;;;;;;;;;5027521;28;20445;-76
2023/09/20 10:56:45;;;;;;;2.10;1.20;;;;;;;;;;5035946;28;20441;-76
2023/09/20 10:59:18;;;;;;;1.90;1.00;;;;;;;;;;5035356;28;20464;-76
2023/09/20 11:01:51;;;;;;;2.50;1.10;;;;;;;;;;5035522;28;20469;-76
2023/09/20 11:04:19;;;;;;;3.00;1.40;;;;;;;;;;5035890;28;20410;-76
2023/09/20 11:06:46;;;;;;;2.43;1.03;;;;;;;;;;5035123;28;20473;-76
2023/09/20 11:09:15;;;;;;;1.80;0.90;;;;;;;;;;5042301;28;20902;-76
2023/09/20 11:11:43;;;;;;;2.60;1.13;;;;;;;;;;5035734;28;20437;-76
2023/09/20 11:14:10;;;;;;;2.80;1.40;;;;;;;;;;5042894;28;20428;-76
2023/09/20 11:16:41;;;;;;;2.67;1.10;;;;;;;;;;5055057;28;20455;-76
2023/09/20 11:19:11;;;;;;;2.77;1.13;;;;;;;;;;5055414;28;20513;-76
2023/09/20 11:21:39;;;;;;;3.20;1.30;;;;;;;;;;5054570;28;20923;-76
2023/09/20 11:24:07;;;;;;;3.10;1.30;;;;;;;;;;5055083;28;20428;-76
2023/09/20 11:26:34;;;;;;;2.20;1.10;;;;;;;;;;5041937;28;20477;-76
2023/09/20 11:29:04;;;;;;;2.53;1.20;;;;;;;;;;5055290;28;20428;-76
2023/09/20 11:31:32;;;;;;;2.10;1.00;;;;;;;;;;5052620;28;20432;-76
2023/09/20 11:34:02;;;;;;;3.70;1.10;;;;;;;;;;5040603;28;20445;-76
2023/09/20 11:36:30;;;;;;;1.97;1.00;;;;;;;;;;5033711;28;20437;-76
2023/09/20 11:38:58;;;;;;;2.13;1.13;;;;;;;;;;5034121;28;20445;-76
2023/09/20 11:41:25;;;;;;;2.40;1.10;;;;;;;;;;5034255;28;20433;-76
2023/09/20 11:43:56;;;;;;;2.93;1.10;;;;;;;;;;5034181;28;20429;-76
2023/09/20 11:46:26;;;;;;;1.90;0.93;;;;;;;;;;5034232;28;20866;-76
2023/09/20 11:48:58;;;;;;;2.33;1.07;;;;;;;;;;5047257;28;20433;-76
2023/09/20 11:51:25;;;;;;;2.87;1.10;;;;;;;;;;5047136;28;20934;-76
2023/09/20 11:53:54;;;;;;;2.40;1.30;;;;;;;;;;5053959;28;20993;-76
2023/09/20 11:56:25;;;;;;;2.57;1.10;;;;;;;;;;5054402;28;20428;-76
2023/09/20 11:58:53;;;;;;;2.20;1.20;;;;;;;;;;5054515;28;20923;-76
2023/09/20 12:01:24;;;;;;;2.03;1.00;;;;;;;;;;5054553;28;20492;-76
2023/09/20 12:03:52;;;;;;;2.30;0.93;;;;;;;;;;5054804;28;20429;-76
2023/09/20 12:06:19;;;;;;;1.90;1.00;;;;;;;;;;5054651;28;20560;-76
2023/09/20 12:08:46;;;;;;;2.43;1.00;;;;;;;;;;5054735;28;20826;-76
2023/09/20 12:11:15;;;;;;;2.10;1.20;;;;;;;;;;5054678;28;20506;-76
2023/09/20 12:13:43;;;;;;;2.10;0.93;;;;;;;;;;5054708;28;20490;-76
2023/09/20 12:16:11;;;;;;;2.37;1.13;;;;;;;;;;5054850;28;20443;-76
2023/09/20 12:18:38;;;;;;;2.53;1.20;;;;;;;;;;5054488;28;20437;-76
2023/09/20 12:21:07;;;;;;;2.60;1.10;;;;;;;;;;5053821;28;20440;-76
2023/09/20 12:23:35;;;;;;;2.03;1.03;;;;;;;;;;5054143;28;20935;-76
2023/09/20 12:26:03;;;;;;;3.23;1.40;;;;;;;;;;5054080;28;20479;-76
2023/09/20 12:28:31;;;;;;;2.40;1.07;;;;;;;;;;5054308;28;20441;-76
2023/09/20 12:30:59;;;;;;;2.20;1.20;;;;;;;;;;5054145;28;20429;-76
2023/09/20 12:33:26;;;;;;;2.30;1.07;;;;;;;;;;5054242;28;20444;-76
2023/09/20 12:35:54;;;;;;;2.30;1.37;;;;;;;;;;5054164;28;20499;-76
2023/09/20 12:38:21;;;;;;;3.27;1.20;;;;;;;;;;5054058;28;20529;-76
2023/09/20 12:40:48;;;;;;;2.97;1.03;;;;;;;;;;5053765;28;20443;-76
2023/09/20 12:43:16;;;;;;;2.23;1.27;;;;;;;;;;5054322;28;20435;-76
2023/09/20 12:45:46;;;;;;;2.30;0.80;;;;;;;;;;5053905;28;20484;-76
2023/09/20 12:48:13;;;;;;;2.17;1.20;;;;;;;;;;5053964;28;20445;-76
2023/09/20 12:50:42;;;;;;;2.30;1.07;;;;;;;;;;5053850;28;20499;-76
2023/09/20 12:53:10;;;;;;;2.17;0.93;;;;;;;;;;5053916;28;20441;-76
2023/09/20 12:55:38;;;;;;;3.13;1.20;;;;;;;;;;5053527;28;20948;-76
2023/09/20 12:58:06;;;;;;;2.53;0.97;;;;;;;;;;5053612;28;20483;-76
2023/09/20 13:00:34;;;;;;;2.77;1.20;;;;;;;;;;5053696;28;20468;-76
2023/09/20 13:03:06;;;;;;;2.43;0.97;;;;;;;;;;5053966;28;20755;-75
2023/09/20 13:05:33;;;;;;;3.07;0.90;;;;;;;;;;5053596;28;20456;-75
2023/09/20 13:08:01;;;;;;;3.83;1.00;;;29.60;29.70;;;;;;5053858;28;20444;-75
2023/09/20 13:10:28;;;;;;;3.03;1.20;;;50.20;12.10;;;;;;5053198;28;20955;-75
2023/09/20 13:12:55;;;;;;;2.83;1.33;;;48.40;12.70;;;;;;5053744;28;20438;-75
2023/09/20 13:15:22;;;;;;;3.03;1.40;;;46.30;13.90;;;;;;5053618;28;20796;-75
2023/09/20 13:17:51;;;;;;;2.43;1.00;;;44.20;15.60;;;;;;5053699;28;20837;-74
2023/09/20 13:20:19;;;;;;;2.57;1.10;;;42.30;16.50;;;;;;5053551;28;20483;-75
2023/09/20 13:22:47;;;;;;;3.50;1.27;;;40.60;18.00;;;;;;5053182;28;21010;-75
2023/09/20 13:25:18;;;;;;;2.63;1.27;;;39.20;19.40;;;;;;5053160;28;20441;-75
2023/09/20 13:27:46;;;;;;;5.90;1.20;;;38.10;20.60;;;;;;5053036;28;20455;-75
2023/09/20 13:30:15;;;;;;;3.23;1.30;;;37.20;22.00;;;;;;5053421;28;20470;-75
2023/09/20 13:32:42;;;;;;;2.30;1.10;;;36.40;22.50;;;;;;5052513;28;20441;-75
2023/09/20 13:35:11;;;;;;;2.23;1.00;;;35.70;23.70;;;;;;5053245;28;20916;-75
2023/09/20 13:37:40;;;;;;;7.40;1.30;;;35.30;24.20;;;;;;5053020;28;20437;-74
2023/09/20 13:40:12;;;;;;;3.93;1.40;;;34.90;25.40;;;;;;5053232;28;20433;-74
2023/09/20 13:42:41;;;;;;;4.43;1.20;;;34.50;25.40;;;;;;5053713;28;20425;-75
2023/09/20 13:45:10;;;;;;;12.20;3.03;;;34.10;26.10;;;;;;5053893;28;20441;-74
2023/09/20 13:47:39;;;;;;;3.40;1.43;;;33.80;26.00;;;;;;5053123;28;20480;-74
2023/09/20 13:50:07;;;;;;;3.00;1.33;;;33.40;26.20;;;;;;5052825;28;20940;-74
2023/09/20 13:52:34;;;;;;;3.97;1.50;;;33.00;26.90;;;;;;5052862;28;20429;-74
2023/09/20 13:55:05;;;;;;;3.97;1.07;;;32.70;27.50;;;;;;5052648;28;20480;-74
2023/09/20 13:57:33;;;;;;;2.50;1.23;;;32.40;28.00;;;;;;5053448;28;20430;-75
2023/09/20 14:00:03;;;;;;;2.60;1.10;;;32.20;28.20;;;;;;5052663;28;20469;-74
2023/09/20 14:02:30;;;;;;;2.93;1.30;;;32.00;29.10;;;;;;5052744;28;20433;-74
2023/09/20 14:04:57;;;;;;;3.03;1.60;;;31.80;29.20;;;;;;5053024;28;20430;-74
2023/09/20 14:07:24;;;;;;;3.10;1.00;;;31.60;29.90;;;;;;5052900;28;20526;-75
2023/09/20 14:09:52;;;;;;;3.30;1.30;;;31.40;30.40;;;;;;5052590;28;20491;-75
2023/09/20 14:12:21;;;;;;;3.10;1.40;;;31.20;31.10;;;;;;5052861;28;20434;-74
2023/09/20 14:14:50;;;;;;;2.20;0.97;;;31.00;30.80;;;;;;5052855;28;20932;-74
2023/09/20 14:17:17;;;;;;;8.07;1.30;;;30.80;31.80;;;;;;5052807;28;20441;-74
2023/09/20 14:19:44;;;;;;;4.47;1.40;;;30.60;32.20;;;;;;5052552;28;20441;-74
2023/09/20 14:22:12;;;;;;;23.63;3.30;;;30.50;32.30;;;;;;5052500;28;20931;-74
2023/09/20 14:24:39;;;;;;;18.50;3.30;;;30.40;32.60;;;;;;5052790;28;20441;-74
2023/09/20 14:27:06;;;;;;;7.30;1.60;;;30.20;32.70;;;;;;5052665;28;20562;-74
2023/09/20 14:29:34;;;;;;;2.67;1.33;;;29.90;33.50;;;;;;5052826;28;20438;-74
2023/09/20 14:32:01;;;;;;;2.97;1.40;;;29.70;34.20;;;;;;5052984;28;20433;-74
2023/09/20 14:34:29;;;;;;;3.57;1.30;;;29.50;34.00;;;;;;5053053;28;20429;-74
2023/09/20 14:36:55;;;;;;;6.50;1.90;;;;;;;;;;5052305;28;20452;-75
2023/09/20 14:39:22;;;;;;;4.20;1.67;;;;;;;;;;5052559;28;20441;-74
2023/09/20 14:41:50;;;;;;;3.70;1.40;;;;;;;;;;5052341;28;20469;-74
2023/09/20 14:44:17;;;;;;;2.23;0.97;;;;;;;;;;5055423;28;20494;-74
2023/09/20 14:46:46;;;;;;;4.23;1.33;;;;;;;;;;5055723;28;20522;-74
2023/09/20 14:49:13;;;;;;;2.63;0.93;;;;;;;;;;5056247;28;20487;-74
2023/09/20 14:51:40;;;;;;;3.70;1.80;;;;;;;;;;5056119;28;20483;-74
2023/09/20 14:54:09;;;;;;;5.50;1.40;;;;;;;;;;5056057;28;20502;-74
2023/09/20 14:56:37;;;;;;;2.90;1.33;;;;;;;;;;5056404;28;20499;-74
2023/09/20 14:59:04;;;;;;;3.00;1.57;;;;;;;;;;5055714;28;20931;-73
2023/09/20 15:01:31;;;;;;;2.30;1.03;;;;;;;;;;5056205;28;20461;-74
2023/09/20 15:04:00;;;;;;;2.90;1.07;;;;;;;;;;5055926;28;20508;-74
2023/09/20 15:06:28;;;;;;;3.33;1.40;;;;;;;;;;5055810;28;20465;-74
2023/09/20 15:09:01;;;;;;;3.03;1.47;;;;;;;;;;5055521;28;20965;-74
2023/09/20 15:11:29;;;;;;;2.90;1.40;;;;;;;;;;5056000;28;20426;-74
2023/09/20 15:13:57;;;;;;;3.20;1.20;;;;;;;;;;5055413;28;20469;-74
2023/09/20 15:16:25;;;;;;;3.27;1.40;;;;;;;;;;5054931;28;20445;-74
2023/09/20 15:18:52;;;;;;;4.00;1.40;;;;;;;;;;5055655;28;20433;-74
2023/09/20 15:21:22;;;;;;;3.67;1.33;;;;;;;;;;5055243;28;20448;-74